Terminal Aerodrome Forecast
Issued by NWS

Home | Current Version | Previous Version | Text Only | Print | Product List | Glossary On
Versions: 1 2 3 4 5 6 7 8 9 10 11 12 13
000
FTUS42 TJSJ 060537
TAFJSJ
TAF
TJSJ 060537Z 0606/0706 11005KT P6SM FEW030
     FM061330 08018G25KT P6SM FEW030 FEW050
     FM062330 07009KT P6SM SKC=

USA.gov is the U.S. government's official web portal to all federal, state and local government web resources and services.